sensor_id;sensor_type;location;lat;lon;timestamp;pressure;altitude;pressure_sealevel;temperature;humidity
65534;BME280;53640;55.838;37.184;2023-03-24T00:00:24;97880.06;;;6.47;53.71
65534;BME280;53640;55.838;37.184;2023-03-24T00:02:53;97887.66;;;6.50;53.39
65534;BME280;53640;55.838;37.184;2023-03-24T00:05:24;97895.03;;;6.54;53.50
65534;BME280;53640;55.838;37.184;2023-03-24T00:07:53;97847.03;;;6.28;54.20
65534;BME280;53640;55.838;37.184;2023-03-24T00:10:20;97790.34;;;5.87;54.09
65534;BME280;53640;55.838;37.184;2023-03-24T00:12:52;97750.78;;;5.64;54.06
65534;BME280;53640;55.838;37.184;2023-03-24T00:15:20;97799.63;;;6.03;54.31
65534;BME280;53640;55.838;37.184;2023-03-24T00:17:50;97848.03;;;6.45;54.16
65534;BME280;53640;55.838;37.184;2023-03-24T00:20:23;97791.69;;;6.08;54.40
65534;BME280;53640;55.838;37.184;2023-03-24T00:22:54;97745.41;;;5.64;54.96
65534;BME280;53640;55.838;37.184;2023-03-24T00:25:28;97827.31;;;6.34;54.19
65534;BME280;53640;55.838;37.184;2023-03-24T00:27:56;97806.19;;;6.07;54.95
65534;BME280;53640;55.838;37.184;2023-03-24T00:30:24;97825.72;;;6.45;54.12
65534;BME280;53640;55.838;37.184;2023-03-24T00:32:53;97823.47;;;6.41;53.99
65534;BME280;53640;55.838;37.184;2023-03-24T00:35:22;97834.50;;;6.52;53.63
65534;BME280;53640;55.838;37.184;2023-03-24T00:37:51;97717.91;;;5.81;53.42
65534;BME280;53640;55.838;37.184;2023-03-24T00:40:20;97765.22;;;6.24;53.13
65534;BME280;53640;55.838;37.184;2023-03-24T00:42:48;97813.56;;;6.54;53.44
65534;BME280;53640;55.838;37.184;2023-03-24T00:45:23;97836.44;;;6.75;53.26
65534;BME280;53640;55.838;37.184;2023-03-24T00:47:50;97744.78;;;6.23;53.20
65534;BME280;53640;55.838;37.184;2023-03-24T00:50:23;97735.56;;;6.18;52.83
65534;BME280;53640;55.838;37.184;2023-03-24T00:52:55;97698.66;;;6.14;53.05
65534;BME280;53640;55.838;37.184;2023-03-24T00:55:23;97665.53;;;6.02;52.60
65534;BME280;53640;55.838;37.184;2023-03-24T00:57:56;97680.50;;;6.09;52.78
65534;BME280;53640;55.838;37.184;2023-03-24T01:00:29;97794.13;;;6.82;52.82
65534;BME280;53640;55.838;37.184;2023-03-24T01:02:57;97825.41;;;7.06;52.77
65534;BME280;53640;55.838;37.184;2023-03-24T01:05:28;97821.19;;;6.99;52.94
65534;BME280;53640;55.838;37.184;2023-03-24T01:07:59;97811.22;;;6.99;52.67
65534;BME280;53640;55.838;37.184;2023-03-24T01:10:34;97827.28;;;7.06;53.00
65534;BME280;53640;55.838;37.184;2023-03-24T01:13:02;97745.66;;;6.58;53.28
65534;BME280;53640;55.838;37.184;2023-03-24T01:15:31;97731.06;;;6.54;52.63
65534;BME280;53640;55.838;37.184;2023-03-24T01:17:58;97760.78;;;6.71;52.96
65534;BME280;53640;55.838;37.184;2023-03-24T01:20:31;97781.19;;;6.90;52.97
65534;BME280;53640;55.838;37.184;2023-03-24T01:23:06;97799.31;;;6.95;52.82
65534;BME280;53640;55.838;37.184;2023-03-24T01:25:34;97789.94;;;6.86;52.83
65534;BME280;53640;55.838;37.184;2023-03-24T01:28:04;97809.25;;;6.95;53.41
65534;BME280;53640;55.838;37.184;2023-03-24T01:30:31;97781.84;;;6.74;53.56
65534;BME280;53640;55.838;37.184;2023-03-24T01:33:00;97794.13;;;6.82;53.77
65534;BME280;53640;55.838;37.184;2023-03-24T01:35:29;97799.91;;;6.97;53.55
65534;BME280;53640;55.838;37.184;2023-03-24T01:37:58;97730.03;;;6.55;53.21
65534;BME280;53640;55.838;37.184;2023-03-24T01:40:28;97683.00;;;6.23;53.25
65534;BME280;53640;55.838;37.184;2023-03-24T01:42:56;97776.31;;;6.81;53.73
65534;BME280;53640;55.838;37.184;2023-03-24T01:49:19;97739.03;;;6.61;53.40
65534;BME280;53640;55.838;37.184;2023-03-24T01:51:29;97710.84;;;6.40;53.94
65534;BME280;53640;55.838;37.184;2023-03-24T01:54:07;97780.69;;;6.82;53.76
65534;BME280;53640;55.838;37.184;2023-03-24T01:56:41;97752.00;;;6.64;53.71
65534;BME280;53640;55.838;37.184;2023-03-24T01:59:14;97663.22;;;6.05;54.02
65534;BME280;53640;55.838;37.184;2023-03-24T02:02:06;97737.50;;;6.53;54.29
65534;BME280;53640;55.838;37.184;2023-03-24T02:04:53;97762.78;;;6.76;54.07
65534;BME280;53640;55.838;37.184;2023-03-24T02:10:18;97739.72;;;6.56;53.76
65534;BME280;53640;55.838;37.184;2023-03-24T02:12:47;97714.81;;;6.49;53.91
65534;BME280;53640;55.838;37.184;2023-03-24T02:15:17;97716.09;;;6.58;53.95
65534;BME280;53640;55.838;37.184;2023-03-24T02:18:16;97752.72;;;6.83;53.61
65534;BME280;53640;55.838;37.184;2023-03-24T02:21:11;97676.91;;;6.15;54.12
65534;BME280;53640;55.838;37.184;2023-03-24T02:35:03;97735.41;;;6.79;53.98
65534;BME280;53640;55.838;37.184;2023-03-24T02:40:33;97720.22;;;6.73;54.10
65534;BME280;53640;55.838;37.184;2023-03-24T02:51:33;97690.28;;;6.57;53.52
65534;BME280;53640;55.838;37.184;2023-03-24T02:57:04;97686.22;;;6.55;53.69
65534;BME280;53640;55.838;37.184;2023-03-24T02:59:56;97727.84;;;6.87;53.80
65534;BME280;53640;55.838;37.184;2023-03-24T03:03:31;97734.97;;;6.82;54.08
65534;BME280;53640;55.838;37.184;2023-03-24T03:08:30;97694.47;;;6.53;54.33
65534;BME280;53640;55.838;37.184;2023-03-24T03:11:01;97676.72;;;6.52;54.13
65534;BME280;53640;55.838;37.184;2023-03-24T03:13:33;97671.34;;;6.52;54.07
65534;BME280;53640;55.838;37.184;2023-03-24T03:16:09;97719.63;;;6.71;54.66
65534;BME280;53640;55.838;37.184;2023-03-24T03:18:50;97705.50;;;6.75;54.24
65534;BME280;53640;55.838;37.184;2023-03-24T03:21:34;97532.31;;;5.77;54.19
65534;BME280;53640;55.838;37.184;2023-03-24T03:24:08;97587.44;;;6.03;54.42
65534;BME280;53640;55.838;37.184;2023-03-24T03:26:36;97599.72;;;6.23;54.19
65534;BME280;53640;55.838;37.184;2023-03-24T03:29:08;97525.53;;;5.75;54.43
65534;BME280;53640;55.838;37.184;2023-03-24T03:31:42;97559.88;;;5.96;54.69
65534;BME280;53640;55.838;37.184;2023-03-24T03:34:53;97609.03;;;6.08;55.28
65534;BME280;53640;55.838;37.184;2023-03-24T03:37:48;97498.28;;;5.48;55.76
65534;BME280;53640;55.838;37.184;2023-03-24T03:40:20;97602.94;;;6.01;56.07
65534;BME280;53640;55.838;37.184;2023-03-24T03:43:03;97625.06;;;6.15;56.85
65534;BME280;53640;55.838;37.184;2023-03-24T03:45:32;97630.97;;;6.05;57.77
65534;BME280;53640;55.838;37.184;2023-03-24T03:48:00;97555.13;;;5.56;58.88
65534;BME280;53640;55.838;37.184;2023-03-24T03:50:30;97588.06;;;5.75;58.24
65534;BME280;53640;55.838;37.184;2023-03-24T03:53:04;97585.53;;;5.68;58.10
65534;BME280;53640;55.838;37.184;2023-03-24T03:55:31;97633.78;;;5.99;58.11
65534;BME280;53640;55.838;37.184;2023-03-24T03:57:57;97695.53;;;6.29;58.95
65534;BME280;53640;55.838;37.184;2023-03-24T04:00:38;97684.03;;;6.10;59.42
65534;BME280;53640;55.838;37.184;2023-03-24T04:15:30;97693.91;;;5.98;60.73
65534;BME280;53640;55.838;37.184;2023-03-24T04:21:37;97674.16;;;5.80;60.82
65534;BME280;53640;55.838;37.184;2023-03-24T04:24:21;97687.16;;;5.95;60.77
65534;BME280;53640;55.838;37.184;2023-03-24T04:27:11;97642.44;;;5.59;61.86
65534;BME280;53640;55.838;37.184;2023-03-24T04:35:35;97684.88;;;5.80;63.35
65534;BME280;53640;55.838;37.184;2023-03-24T04:38:38;97502.84;;;4.57;63.94
65534;BME280;53640;55.838;37.184;2023-03-24T04:41:26;97592.06;;;5.12;63.87
65534;BME280;53640;55.838;37.184;2023-03-24T04:44:10;97633.69;;;5.33;64.05
65534;BME280;53640;55.838;37.184;2023-03-24T04:46:55;97609.00;;;5.25;65.21
65534;BME280;53640;55.838;37.184;2023-03-24T04:49:24;97668.00;;;5.61;64.55
65534;BME280;53640;55.838;37.184;2023-03-24T04:51:51;97616.44;;;5.22;64.47
65534;BME280;53640;55.838;37.184;2023-03-24T04:54:22;97678.50;;;5.63;65.79
65534;BME280;53640;55.838;37.184;2023-03-24T04:56:54;97666.47;;;5.54;64.96
65534;BME280;53640;55.838;37.184;2023-03-24T04:59:28;97630.63;;;5.30;64.82
65534;BME280;53640;55.838;37.184;2023-03-24T05:01:56;97668.91;;;5.55;65.33
65534;BME280;53640;55.838;37.184;2023-03-24T05:04:52;97683.41;;;5.66;65.21
65534;BME280;53640;55.838;37.184;2023-03-24T05:07:40;97684.56;;;5.58;66.71
65534;BME280;53640;55.838;37.184;2023-03-24T05:10:10;97668.97;;;5.49;66.38
65534;BME280;53640;55.838;37.184;2023-03-24T05:12:43;97688.50;;;5.56;66.81
65534;BME280;53640;55.838;37.184;2023-03-24T05:15:33;97641.00;;;5.26;67.09
65534;BME280;53640;55.838;37.184;2023-03-24T05:18:16;97627.06;;;5.17;67.00
65534;BME280;53640;55.838;37.184;2023-03-24T05:20:42;97666.16;;;5.43;66.32
65534;BME280;53640;55.838;37.184;2023-03-24T05:23:16;97679.97;;;5.47;67.19
65534;BME280;53640;55.838;37.184;2023-03-24T05:25:46;97659.25;;;5.36;67.00
65534;BME280;53640;55.838;37.184;2023-03-24T05:28:14;97662.44;;;5.44;66.92
65534;BME280;53640;55.838;37.184;2023-03-24T05:30:43;97648.38;;;5.31;67.85
65534;BME280;53640;55.838;37.184;2023-03-24T05:33:28;97623.56;;;5.17;67.74
65534;BME280;53640;55.838;37.184;2023-03-24T05:35:59;97687.13;;;5.53;67.82
65534;BME280;53640;55.838;37.184;2023-03-24T05:38:26;97670.13;;;5.41;67.46
65534;BME280;53640;55.838;37.184;2023-03-24T05:40:59;97675.41;;;5.48;66.96
65534;BME280;53640;55.838;37.184;2023-03-24T05:43:31;97644.72;;;5.25;67.37
65534;BME280;53640;55.838;37.184;2023-03-24T05:46:08;97684.44;;;5.53;67.25
65534;BME280;53640;55.838;37.184;2023-03-24T05:48:34;97664.53;;;5.42;67.23
65534;BME280;53640;55.838;37.184;2023-03-24T05:51:09;97668.41;;;5.47;67.61
65534;BME280;53640;55.838;37.184;2023-03-24T05:53:44;97639.41;;;5.18;68.86
65534;BME280;53640;55.838;37.184;2023-03-24T05:56:31;97640.59;;;5.22;67.96
65534;BME280;53640;55.838;37.184;2023-03-24T05:59:27;97644.72;;;5.25;68.40
65534;BME280;53640;55.838;37.184;2023-03-24T06:02:16;97622.75;;;4.98;69.06
65534;BME280;53640;55.838;37.184;2023-03-24T06:04:58;97618.34;;;5.04;68.90
65534;BME280;53640;55.838;37.184;2023-03-24T06:07:30;97582.41;;;4.75;69.45
65534;BME280;53640;55.838;37.184;2023-03-24T06:10:00;97532.53;;;4.55;68.74
65534;BME280;53640;55.838;37.184;2023-03-24T06:12:40;97577.63;;;4.77;68.48
65534;BME280;53640;55.838;37.184;2023-03-24T06:18:32;97606.59;;;5.05;68.91
65534;BME280;53640;55.838;37.184;2023-03-24T06:21:04;97595.19;;;4.91;68.98
65534;BME280;53640;55.838;37.184;2023-03-24T06:23:33;97652.53;;;5.27;69.48
65534;BME280;53640;55.838;37.184;2023-03-24T06:26:10;97621.56;;;5.12;69.32
65534;BME280;53640;55.838;37.184;2023-03-24T06:28:56;97643.69;;;5.26;69.08
65534;BME280;53640;55.838;37.184;2023-03-24T06:31:26;97671.09;;;5.47;68.88
65534;BME280;53640;55.838;37.184;2023-03-24T06:33:55;97630.47;;;5.25;68.79
65534;BME280;53640;55.838;37.184;2023-03-24T06:36:23;97648.44;;;5.24;69.94
65534;BME280;53640;55.838;37.184;2023-03-24T06:38:51;97653.06;;;5.35;69.49
65534;BME280;53640;55.838;37.184;2023-03-24T06:41:20;97674.97;;;5.51;69.93
65534;BME280;53640;55.838;37.184;2023-03-24T06:43:52;97574.63;;;4.85;69.48
65534;BME280;53640;55.838;37.184;2023-03-24T06:46:20;97672.72;;;5.48;70.05
65534;BME280;53640;55.838;37.184;2023-03-24T06:48:46;97616.63;;;5.09;69.60
65534;BME280;53640;55.838;37.184;2023-03-24T06:51:16;97651.50;;;5.28;69.61
65534;BME280;53640;55.838;37.184;2023-03-24T06:53:44;97673.41;;;5.43;69.69
65534;BME280;53640;55.838;37.184;2023-03-24T06:56:12;97674.91;;;5.39;70.61
65534;BME280;53640;55.838;37.184;2023-03-24T06:58:47;97637.78;;;5.17;69.91
65534;BME280;53640;55.838;37.184;2023-03-24T07:01:19;97653.59;;;5.26;70.08
65534;BME280;53640;55.838;37.184;2023-03-24T07:03:55;97698.13;;;5.45;69.69
65534;BME280;53640;55.838;37.184;2023-03-24T07:06:42;97685.25;;;5.35;70.66
65534;BME280;53640;55.838;37.184;2023-03-24T07:09:15;97677.66;;;5.32;70.25
65534;BME280;53640;55.838;37.184;2023-03-24T07:11:43;97662.28;;;5.21;70.16
65534;BME280;53640;55.838;37.184;2023-03-24T07:14:10;97585.09;;;4.75;69.93
65534;BME280;53640;55.838;37.184;2023-03-24T07:16:52;97683.25;;;5.31;70.51
65534;BME280;53640;55.838;37.184;2023-03-24T07:19:46;97596.25;;;4.71;70.87
65534;BME280;53640;55.838;37.184;2023-03-24T07:22:58;97689.56;;;5.36;70.86
65534;BME280;53640;55.838;37.184;2023-03-24T07:25:27;97639.78;;;5.04;70.67
65534;BME280;53640;55.838;37.184;2023-03-24T07:28:04;97676.22;;;5.11;70.34
65534;BME280;53640;55.838;37.184;2023-03-24T07:30:31;97610.84;;;4.76;70.78
65534;BME280;53640;55.838;37.184;2023-03-24T07:32:59;97548.16;;;4.40;70.81
65534;BME280;53640;55.838;37.184;2023-03-24T07:35:39;97640.78;;;4.91;71.09
65534;BME280;53640;55.838;37.184;2023-03-24T07:38:08;97691.97;;;5.26;70.39
65534;BME280;53640;55.838;37.184;2023-03-24T07:40:37;97622.31;;;4.83;70.33
65534;BME280;53640;55.838;37.184;2023-03-24T07:43:08;97642.66;;;4.90;70.85
65534;BME280;53640;55.838;37.184;2023-03-24T07:46:02;97619.47;;;4.78;71.00
65534;BME280;53640;55.838;37.184;2023-03-24T07:48:32;97701.13;;;5.37;70.71
65534;BME280;53640;55.838;37.184;2023-03-24T07:51:04;97684.88;;;5.13;71.24
65534;BME280;53640;55.838;37.184;2023-03-24T07:54:02;97626.69;;;4.77;71.25
65534;BME280;53640;55.838;37.184;2023-03-24T08:00:37;97567.22;;;4.50;71.24
65534;BME280;53640;55.838;37.184;2023-03-24T08:03:33;97563.19;;;4.41;71.34
65534;BME280;53640;55.838;37.184;2023-03-24T08:06:28;97566.91;;;4.40;71.12
65534;BME280;53640;55.838;37.184;2023-03-24T08:09:57;97733.63;;;5.47;71.17
65534;BME280;53640;55.838;37.184;2023-03-24T08:15:33;97652.63;;;5.02;71.69
65534;BME280;53640;55.838;37.184;2023-03-24T08:18:52;97733.06;;;5.57;70.69
65534;BME280;53640;55.838;37.184;2023-03-24T08:21:24;97554.06;;;4.48;71.18
65534;BME280;53640;55.838;37.184;2023-03-24T08:24:15;97593.78;;;4.70;71.62
65534;BME280;53640;55.838;37.184;2023-03-24T08:27:12;97643.91;;;5.06;71.40
65534;BME280;53640;55.838;37.184;2023-03-24T08:29:39;97710.72;;;5.44;71.21
65534;BME280;53640;55.838;37.184;2023-03-24T08:32:05;97724.69;;;5.53;71.11
65534;BME280;53640;55.838;37.184;2023-03-24T08:34:31;97685.47;;;5.34;71.13
65534;BME280;53640;55.838;37.184;2023-03-24T08:36:58;97719.16;;;5.48;71.53
65534;BME280;53640;55.838;37.184;2023-03-24T08:39:24;97679.97;;;5.29;71.74
65534;BME280;53640;55.838;37.184;2023-03-24T08:41:51;97686.16;;;5.29;71.70
65534;BME280;53640;55.838;37.184;2023-03-24T08:44:19;97729.28;;;5.64;71.43
65534;BME280;53640;55.838;37.184;2023-03-24T08:46:46;97729.75;;;5.61;71.61
65534;BME280;53640;55.838;37.184;2023-03-24T08:49:13;97719.53;;;5.52;71.72
65534;BME280;53640;55.838;37.184;2023-03-24T08:51:40;97738.38;;;5.63;71.59
65534;BME280;53640;55.838;37.184;2023-03-24T08:54:06;97727.38;;;5.53;71.22
65534;BME280;53640;55.838;37.184;2023-03-24T08:56:34;97687.22;;;5.28;71.02
65534;BME280;53640;55.838;37.184;2023-03-24T08:59:00;97747.47;;;5.62;71.69
65534;BME280;53640;55.838;37.184;2023-03-24T09:01:27;97703.59;;;5.38;71.46
65534;BME280;53640;55.838;37.184;2023-03-24T09:03:54;97724.81;;;5.58;71.34
65534;BME280;53640;55.838;37.184;2023-03-24T09:06:21;97709.91;;;5.44;71.57
65534;BME280;53640;55.838;37.184;2023-03-24T09:08:47;97727.38;;;5.53;71.48
65534;BME280;53640;55.838;37.184;2023-03-24T09:11:18;97706.28;;;5.38;71.39
65534;BME280;53640;55.838;37.184;2023-03-24T09:13:46;97754.03;;;5.66;71.44
65534;BME280;53640;55.838;37.184;2023-03-24T09:16:14;97709.63;;;5.34;71.98
65534;BME280;53640;55.838;37.184;2023-03-24T09:19:07;97752.97;;;5.67;71.73
65534;BME280;53640;55.838;37.184;2023-03-24T09:22:27;97701.28;;;5.24;71.42
65534;BME280;53640;55.838;37.184;2023-03-24T09:26:06;97758.88;;;5.58;71.60
65534;BME280;53640;55.838;37.184;2023-03-24T09:31:49;97780.13;;;5.59;72.29
65534;BME280;53640;55.838;37.184;2023-03-24T09:34:19;97748.03;;;5.34;71.60
65534;BME280;53640;55.838;37.184;2023-03-24T09:36:56;97745.03;;;5.42;71.63
65534;BME280;53640;55.838;37.184;2023-03-24T09:39:24;97632.50;;;4.74;71.41
65534;BME280;53640;55.838;37.184;2023-03-24T09:41:53;97781.31;;;5.63;72.03
65534;BME280;53640;55.838;37.184;2023-03-24T09:44:25;97781.94;;;5.65;71.57
65534;BME280;53640;55.838;37.184;2023-03-24T09:49:44;97752.28;;;5.42;71.61
65534;BME280;53640;55.838;37.184;2023-03-24T09:52:13;97705.13;;;5.09;71.40
65534;BME280;53640;55.838;37.184;2023-03-24T09:54:54;97790.34;;;5.69;71.74
65534;BME280;53640;55.838;37.184;2023-03-24T09:57:25;97710.34;;;5.22;71.83
65534;BME280;53640;55.838;37.184;2023-03-24T09:59:56;97743.63;;;5.40;71.96
65534;BME280;53640;55.838;37.184;2023-03-24T10:02:28;97748.84;;;5.53;71.67
65534;BME280;53640;55.838;37.184;2023-03-24T10:04:55;97789.81;;;5.79;71.96
65534;BME280;53640;55.838;37.184;2023-03-24T10:07:38;97793.09;;;5.81;72.06
65534;BME280;53640;55.838;37.184;2023-03-24T10:10:20;97786.81;;;5.87;72.09
65534;BME280;53640;55.838;37.184;2023-03-24T10:12:49;97745.41;;;5.64;72.13
65534;BME280;53640;55.838;37.184;2023-03-24T10:15:35;97800.38;;;5.92;72.63
65534;BME280;53640;55.838;37.184;2023-03-24T10:18:20;97799.47;;;5.98;72.77
65534;BME280;53640;55.838;37.184;2023-03-24T10:20:56;97793.81;;;6.06;72.93
65534;BME280;53640;55.838;37.184;2023-03-24T10:26:26;97796.97;;;6.15;72.25
65534;BME280;53640;55.838;37.184;2023-03-24T10:29:06;97799.59;;;6.22;72.58
65534;BME280;53640;55.838;37.184;2023-03-24T10:31:40;97751.22;;;5.91;72.60
65534;BME280;53640;55.838;37.184;2023-03-24T10:34:11;97749.13;;;5.93;71.85
65534;BME280;53640;55.838;37.184;2023-03-24T10:36:40;97740.94;;;5.88;71.71
65534;BME280;53640;55.838;37.184;2023-03-24T10:39:14;97786.59;;;6.18;71.92
65534;BME280;53640;55.838;37.184;2023-03-24T10:41:42;97779.00;;;6.15;72.03
65534;BME280;53640;55.838;37.184;2023-03-24T10:44:11;97797.25;;;6.25;72.18
65534;BME280;53640;55.838;37.184;2023-03-24T10:46:45;97807.81;;;6.38;72.00
65534;BME280;53640;55.838;37.184;2023-03-24T10:49:20;97743.91;;;5.99;71.57
65534;BME280;53640;55.838;37.184;2023-03-24T10:51:52;97770.47;;;6.18;71.71
65534;BME280;53640;55.838;37.184;2023-03-24T10:54:26;97687.88;;;5.72;70.83
65534;BME280;53640;55.838;37.184;2023-03-24T10:59:34;97809.31;;;6.76;72.78
65534;BME280;53640;55.838;37.184;2023-03-24T11:04:53;97730.50;;;6.52;73.66
65534;BME280;53640;55.838;37.184;2023-03-24T11:07:23;97776.25;;;6.87;72.93
65534;BME280;53640;55.838;37.184;2023-03-24T11:10:31;97707.00;;;6.59;73.33
65534;BME280;53640;55.838;37.184;2023-03-24T11:13:31;97809.13;;;7.36;70.64
65534;BME280;53640;55.838;37.184;2023-03-24T11:16:14;97685.84;;;6.51;70.93
65534;BME280;53640;55.838;37.184;2023-03-24T11:19:02;97796.75;;;7.12;70.65
65534;BME280;53640;55.838;37.184;2023-03-24T11:21:34;97726.19;;;6.63;68.64
65534;BME280;53640;55.838;37.184;2023-03-24T11:24:17;97723.34;;;6.58;67.84
65534;BME280;53640;55.838;37.184;2023-03-24T11:27:13;97697.25;;;6.35;68.13
65534;BME280;53640;55.838;37.184;2023-03-24T11:29:51;97695.72;;;6.27;68.75
65534;BME280;53640;55.838;37.184;2023-03-24T11:32:29;97785.91;;;6.77;69.11
65534;BME280;53640;55.838;37.184;2023-03-24T11:35:06;97694.19;;;6.19;68.40
65534;BME280;53640;55.838;37.184;2023-03-24T11:37:36;97787.56;;;6.78;68.33
65534;BME280;53640;55.838;37.184;2023-03-24T11:42:52;97814.06;;;6.93;69.94
65534;BME280;53640;55.838;37.184;2023-03-24T11:45:34;97776.00;;;6.77;69.99
65534;BME280;53640;55.838;37.184;2023-03-24T11:48:31;97841.22;;;7.26;70.15
65534;BME280;53640;55.838;37.184;2023-03-24T11:51:04;97798.03;;;6.98;69.75
65534;BME280;53640;55.838;37.184;2023-03-24T11:53:41;97818.63;;;7.04;69.07
65534;BME280;53640;55.838;37.184;2023-03-24T11:56:28;97703.81;;;6.39;68.80
65534;BME280;53640;55.838;37.184;2023-03-24T12:02:01;97748.16;;;6.60;68.44
65534;BME280;53640;55.838;37.184;2023-03-24T12:05:03;97735.97;;;6.57;69.18
65534;BME280;53640;55.838;37.184;2023-03-24T12:07:43;97867.06;;;7.39;69.71
65534;BME280;53640;55.838;37.184;2023-03-24T12:10:56;97821.19;;;7.10;67.65
65534;BME280;53640;55.838;37.184;2023-03-24T12:13:38;97755.41;;;6.71;65.65
65534;BME280;53640;55.838;37.184;2023-03-24T12:19:23;97874.56;;;7.49;68.30
65534;BME280;53640;55.838;37.184;2023-03-24T12:25:15;97876.03;;;7.92;70.29
65534;BME280;53640;55.838;37.184;2023-03-24T12:33:44;97855.28;;;8.04;66.26
65534;BME280;53640;55.838;37.184;2023-03-24T12:36:28;97881.03;;;8.11;64.91
65534;BME280;53640;55.838;37.184;2023-03-24T12:42:10;97872.94;;;8.11;64.87
65534;BME280;53640;55.838;37.184;2023-03-24T12:44:44;97887.22;;;8.24;67.42
65534;BME280;53640;55.838;37.184;2023-03-24T12:50:25;97890.81;;;9.15;76.73
65534;BME280;53640;55.838;37.184;2023-03-24T12:55:58;97891.00;;;9.98;71.71
65534;BME280;53640;55.838;37.184;2023-03-24T12:58:51;97762.22;;;9.48;69.78
65534;BME280;53640;55.838;37.184;2023-03-24T13:01:41;97803.16;;;10.00;64.73
65534;BME280;53640;55.838;37.184;2023-03-24T13:04:28;97789.53;;;10.39;67.36
65534;BME280;53640;55.838;37.184;2023-03-24T13:07:07;97883.41;;;11.52;69.59
65534;BME280;53640;55.838;37.184;2023-03-24T13:09:52;97875.28;;;11.94;66.04
65534;BME280;53640;55.838;37.184;2023-03-24T13:12:37;97881.97;;;12.34;65.01
65534;BME280;53640;55.838;37.184;2023-03-24T13:17:40;97880.78;;;12.93;62.99
65534;BME280;53640;55.838;37.184;2023-03-24T13:37:49;97790.19;;;11.11;47.33
65534;BME280;53640;55.838;37.184;2023-03-24T13:40:28;97839.47;;;11.13;51.31
65534;BME280;53640;55.838;37.184;2023-03-24T13:43:10;97835.06;;;10.69;52.35
65534;BME280;53640;55.838;37.184;2023-03-24T13:45:44;97883.03;;;10.79;50.02
65534;BME280;53640;55.838;37.184;2023-03-24T13:51:03;97915.59;;;10.18;50.88
65534;BME280;53640;55.838;37.184;2023-03-24T13:53:34;97895.88;;;9.79;51.52
65534;BME280;53640;55.838;37.184;2023-03-24T13:56:03;97915.38;;;9.64;52.64
65534;BME280;53640;55.838;37.184;2023-03-24T13:59:04;97816.38;;;8.85;52.46
65534;BME280;53640;55.838;37.184;2023-03-24T14:01:42;97857.25;;;8.94;53.38
65534;BME280;53640;55.838;37.184;2023-03-24T14:04:25;97903.13;;;8.94;54.20
65534;BME280;53640;55.838;37.184;2023-03-24T14:06:58;97906.38;;;8.79;54.26
65534;BME280;53640;55.838;37.184;2023-03-24T14:09:27;97877.34;;;8.41;54.57
65534;BME280;53640;55.838;37.184;2023-03-24T14:14:36;97925.50;;;8.49;56.18
65534;BME280;53640;55.838;37.184;2023-03-24T14:17:21;97934.25;;;8.28;56.19
65534;BME280;53640;55.838;37.184;2023-03-24T14:22:31;97890.25;;;7.75;55.83
65534;BME280;53640;55.838;37.184;2023-03-24T14:25:22;97914.59;;;7.80;55.50
65534;BME280;53640;55.838;37.184;2023-03-24T14:28:14;97942.22;;;7.87;55.70
65534;BME280;53640;55.838;37.184;2023-03-24T14:36:39;97912.59;;;7.52;57.23
65534;BME280;53640;55.838;37.184;2023-03-24T14:41:59;97917.28;;;7.45;56.40
65534;BME280;53640;55.838;37.184;2023-03-24T14:47:15;97960.50;;;7.62;57.08
65534;BME280;53640;55.838;37.184;2023-03-24T14:49:43;97907.09;;;7.24;57.53
65534;BME280;53640;55.838;37.184;2023-03-24T14:52:36;97919.94;;;7.33;57.70
65534;BME280;53640;55.838;37.184;2023-03-24T14:55:09;97938.34;;;7.36;57.08
65534;BME280;53640;55.838;37.184;2023-03-24T14:57:44;97916.16;;;7.11;57.31
65534;BME280;53640;55.838;37.184;2023-03-24T15:00:21;97982.03;;;7.50;58.03
65534;BME280;53640;55.838;37.184;2023-03-24T15:05:42;97844.91;;;6.48;57.73
65534;BME280;53640;55.838;37.184;2023-03-24T15:08:20;97887.66;;;6.80;57.29
65534;BME280;53640;55.838;37.184;2023-03-24T15:10:57;97873.59;;;6.66;57.78
65534;BME280;53640;55.838;37.184;2023-03-24T15:13:31;97972.38;;;7.19;58.12
65534;BME280;53640;55.838;37.184;2023-03-24T15:16:19;97894.59;;;6.57;58.24
65534;BME280;53640;55.838;37.184;2023-03-24T15:18:55;97956.50;;;6.99;58.02
65534;BME280;53640;55.838;37.184;2023-03-24T15:21:39;97856.13;;;6.27;58.15
65534;BME280;53640;55.838;37.184;2023-03-24T15:26:53;98023.34;;;7.14;55.83
65534;BME280;53640;55.838;37.184;2023-03-24T15:29:20;97922.84;;;6.48;56.59
65534;BME280;53640;55.838;37.184;2023-03-24T15:31:49;97966.56;;;6.74;56.57
65534;BME280;53640;55.838;37.184;2023-03-24T15:34:36;97929.97;;;6.54;56.64
65534;BME280;53640;55.838;37.184;2023-03-24T15:37:06;97919.19;;;6.42;56.12
65534;BME280;53640;55.838;37.184;2023-03-24T15:39:48;97973.53;;;6.63;57.62
65534;BME280;53640;55.838;37.184;2023-03-24T15:42:25;97860.34;;;5.86;57.65
65534;BME280;53640;55.838;37.184;2023-03-24T15:44:52;97883.94;;;6.02;57.68
65534;BME280;53640;55.838;37.184;2023-03-24T15:47:24;98039.41;;;6.90;57.30
65534;BME280;53640;55.838;37.184;2023-03-24T15:49:58;97872.66;;;5.93;57.34
65534;BME280;53640;55.838;37.184;2023-03-24T15:52:37;97990.69;;;6.62;56.94
65534;BME280;53640;55.838;37.184;2023-03-24T15:55:34;97992.13;;;6.64;56.98
65534;BME280;53640;55.838;37.184;2023-03-24T15:58:21;97983.03;;;6.47;57.56
65534;BME280;53640;55.838;37.184;2023-03-24T16:00:49;98004.97;;;6.62;57.56
65534;BME280;53640;55.838;37.184;2023-03-24T16:03:18;97999.22;;;6.59;57.16
65534;BME280;53640;55.838;37.184;2023-03-24T16:05:53;98024.06;;;6.54;57.39
65534;BME280;53640;55.838;37.184;2023-03-24T16:08:31;98026.03;;;6.47;58.27
65534;BME280;53640;55.838;37.184;2023-03-24T16:11:07;98032.16;;;6.54;57.69
65534;BME280;53640;55.838;37.184;2023-03-24T16:13:37;98055.97;;;6.69;57.65
65534;BME280;53640;55.838;37.184;2023-03-24T16:18:47;98050.69;;;6.62;57.81
65534;BME280;53640;55.838;37.184;2023-03-24T16:23:45;98043.88;;;6.60;57.93
65534;BME280;53640;55.838;37.184;2023-03-24T16:26:35;98061.19;;;6.82;57.52